METAR Data
IDs: Format: Raw Decoded Include TAF

Data at: 1940 UTC 23 Oct 2021

ENTO 231920Z 17007KT CAVOK 05/02 Q1020 NOSIG